Time;durP1;ratioP1;P1;durP2;ratioP2;P2;SDS_P1;SDS_P2;PMS_P1;PMS_P2;Temp;Humidity;BMP_temperature;BMP_pressure;BME280_temperature;BME280_humidity;BME280_pressure;Samples;Min_cycle;Max_cycle;Signal;HPM_P1;HPM_P2
2021/04/18 00:01:29;;;;;;;2.50;1.73;;;16.40;28.30;;;;;;8399007;28;20048;-55
2021/04/18 00:05:29;;;;;;;1.70;1.60;;;16.40;28.30;;;;;;8394443;28;20036;-55
2021/04/18 00:09:30;;;;;;;2.53;1.77;;;16.40;28.30;;;;;;8392650;28;20045;-55
2021/04/18 00:13:30;;;;;;;2.27;1.80;;;16.40;28.40;;;;;;8394181;28;20082;-55
2021/04/18 00:17:31;;;;;;;4.93;1.83;;;16.40;28.40;;;;;;8391537;28;20128;-56
2021/04/18 00:21:32;;;;;;;3.23;2.00;;;16.40;28.40;;;;;;8363314;28;20041;-53
2021/04/18 00:25:32;;;;;;;1.83;1.70;;;16.30;28.40;;;;;;8386819;28;20044;-55
2021/04/18 00:29:33;;;;;;;5.63;2.73;;;16.30;28.40;;;;;;8393053;28;20032;-55
2021/04/18 00:33:34;;;;;;;1.73;1.63;;;16.40;28.50;;;;;;8391423;28;20089;-55
2021/04/18 00:37:34;;;;;;;2.60;1.87;;;16.30;28.50;;;;;;8397958;28;20040;-55
2021/04/18 00:41:35;;;;;;;5.30;2.17;;;16.40;28.90;;;;;;8392959;28;20052;-55
2021/04/18 00:45:35;;;;;;;4.07;1.83;;;16.40;28.50;;;;;;8372035;28;20041;-55
2021/04/18 00:49:36;;;;;;;4.47;2.40;;;16.40;28.50;;;;;;8370013;28;20067;-55
2021/04/18 00:53:36;;;;;;;2.97;1.67;;;16.30;28.50;;;;;;8394890;28;20044;-55
2021/04/18 00:57:37;;;;;;;3.20;1.80;;;16.30;28.50;;;;;;8393448;28;20037;-55
2021/04/18 01:01:38;;;;;;;2.27;1.93;;;16.30;28.50;;;;;;8392658;28;20386;-55
2021/04/18 01:05:39;;;;;;;3.27;1.70;;;16.30;28.50;;;;;;8392498;28;20167;-55
2021/04/18 01:09:39;;;;;;;2.27;1.53;;;16.40;28.60;;;;;;8389963;28;20033;-55
2021/04/18 01:13:40;;;;;;;3.30;1.80;;;16.30;28.60;;;;;;8396695;28;20040;-55
2021/04/18 01:17:40;;;;;;;5.10;2.37;;;16.30;28.60;;;;;;8368281;28;20036;-55
2021/04/18 01:21:41;;;;;;;2.53;1.43;;;16.30;28.60;;;;;;8389351;28;20139;-55
2021/04/18 01:25:43;;;;;;;2.30;1.67;;;16.30;28.70;;;;;;8391746;28;20485;-55
2021/04/18 01:29:44;;;;;;;2.05;1.80;;;16.30;28.70;;;;;;8396443;28;20028;-55
2021/04/18 01:33:45;;;;;;;2.30;1.85;;;16.30;28.70;;;;;;8389913;28;20037;-55
2021/04/18 01:37:46;;;;;;;3.23;1.77;;;16.30;28.70;;;;;;8391474;28;20500;-55
2021/04/18 01:41:46;;;;;;;3.40;2.20;;;16.30;28.70;;;;;;8391192;28;20044;-55
2021/04/18 01:45:50;;;;;;;3.27;1.80;;;16.30;28.70;;;;;;8381796;28;20031;-53
2021/04/18 01:49:50;;;;;;;5.25;2.05;;;16.30;28.70;;;;;;8379967;28;20032;-54
2021/04/18 01:53:51;;;;;;;3.93;1.80;;;16.30;28.80;;;;;;8389588;28;20068;-54
2021/04/18 01:57:51;;;;;;;5.23;2.00;;;16.30;28.80;;;;;;8391040;28;20044;-54
2021/04/18 02:01:52;;;;;;;2.50;1.87;;;16.30;28.80;;;;;;8385591;28;20037;-55
2021/04/18 02:05:52;;;;;;;2.53;1.73;;;16.30;28.80;;;;;;8360753;27;20071;-54
2021/04/18 02:09:53;;;;;;;2.57;1.67;;;16.30;28.80;;;;;;8358707;28;20116;-54
2021/04/18 02:13:53;;;;;;;2.83;1.63;;;16.20;28.80;;;;;;8376954;28;20036;-54
2021/04/18 02:17:54;;;;;;;2.93;1.80;;;16.30;28.90;;;;;;8388971;28;20032;-55
2021/04/18 02:21:55;;;;;;;1.93;1.63;;;16.30;28.90;;;;;;8395664;28;20044;-54
2021/04/18 02:25:56;;;;;;;2.65;1.70;;;16.30;29.30;;;;;;8390210;28;20044;-55
2021/04/18 02:29:57;;;;;;;3.30;1.77;;;16.20;28.90;;;;;;8388708;28;20487;-54
2021/04/18 02:33:57;;;;;;;2.77;1.53;;;16.20;28.90;;;;;;8391038;28;20447;-54
2021/04/18 02:37:58;;;;;;;3.17;1.77;;;16.30;29.00;;;;;;8390762;28;20048;-55
2021/04/18 02:41:58;;;;;;;1.90;1.50;;;16.30;29.00;;;;;;8393482;28;20504;-54
2021/04/18 02:45:59;;;;;;;3.57;1.97;;;16.30;29.00;;;;;;8390487;28;20037;-55
2021/04/18 02:49:59;;;;;;;3.27;1.83;;;16.20;29.00;;;;;;8390382;28;20040;-54
2021/04/18 02:54:00;;;;;;;2.10;1.60;;;16.20;29.00;;;;;;8389796;28;20040;-55
2021/04/18 02:58:01;;;;;;;2.25;1.83;;;16.20;29.10;;;;;;8401283;28;20419;-55
2021/04/18 03:02:02;;;;;;;2.40;1.60;;;16.20;29.10;;;;;;8396436;28;20091;-54
2021/04/18 03:06:02;;;;;;;3.23;2.00;;;16.20;29.10;;;;;;8394498;28;20032;-54
2021/04/18 03:10:04;;;;;;;2.57;1.83;;;16.20;29.20;;;;;;8395999;28;20051;-54
2021/04/18 03:14:05;;;;;;;2.55;1.73;;;16.10;29.10;;;;;;8397070;28;20049;-54
2021/04/18 03:18:05;;;;;;;3.10;2.10;;;16.20;29.20;;;;;;8398059;28;20049;-55
2021/04/18 03:22:06;;;;;;;3.60;1.63;;;16.20;29.20;;;;;;8395125;28;20117;-56
2021/04/18 03:26:07;;;;;;;4.23;1.80;;;16.10;29.20;;;;;;8395965;28;20032;-57
2021/04/18 03:30:08;;;;;;;2.47;1.80;;;16.10;29.10;;;;;;8393705;28;20044;-55
2021/04/18 03:34:08;;;;;;;1.92;1.50;;;16.10;29.70;;;;;;8399978;28;20047;-55
2021/04/18 03:38:09;;;;;;;2.63;1.70;;;16.10;29.20;;;;;;8395484;28;20056;-55
2021/04/18 03:42:10;;;;;;;2.57;1.70;;;16.10;29.20;;;;;;8393354;28;20139;-54
2021/04/18 03:46:10;;;;;;;2.83;1.73;;;16.10;29.20;;;;;;8394602;28;20044;-55
2021/04/18 03:50:13;;;;;;;3.33;1.77;;;16.10;29.20;;;;;;8399425;28;20039;-54
2021/04/18 03:54:14;;;;;;;2.65;1.67;;;16.10;29.20;;;;;;8393149;28;20120;-54
2021/04/18 03:58:15;;;;;;;1.73;1.60;;;16.10;29.30;;;;;;8394715;28;20048;-54
2021/04/18 04:02:15;;;;;;;2.47;1.97;;;16.10;29.30;;;;;;8394736;28;20456;-55
2021/04/18 04:06:16;;;;;;;3.23;2.00;;;16.10;29.30;;;;;;8392871;28;20040;-55
2021/04/18 04:10:16;;;;;;;1.90;1.67;;;16.10;29.30;;;;;;8398828;28;20473;-54
2021/04/18 04:14:17;;;;;;;2.10;1.90;;;16.10;29.30;;;;;;8393624;28;20115;-55
2021/04/18 04:18:17;;;;;;;3.17;1.67;;;16.10;29.40;;;;;;8392511;28;20040;-55
2021/04/18 04:22:18;;;;;;;2.93;1.87;;;16.10;29.40;;;;;;8393877;28;20528;-55
2021/04/18 04:26:19;;;;;;;2.23;1.93;;;16.10;29.40;;;;;;8398330;28;20511;-55
2021/04/18 04:30:19;;;;;;;2.77;1.83;;;16.10;29.40;;;;;;8364586;28;20048;-55
2021/04/18 04:34:20;;;;;;;3.03;2.00;;;16.10;29.50;;;;;;8379772;28;20028;-55
2021/04/18 04:38:20;;;;;;;3.37;2.10;;;16.10;29.50;;;;;;8392500;28;20029;-55
2021/04/18 04:42:21;;;;;;;3.13;2.10;;;16.10;29.50;;;;;;8396199;28;20481;-55
2021/04/18 04:46:22;;;;;;;3.33;2.33;;;16.10;29.50;;;;;;8393238;28;20029;-55
2021/04/18 04:50:22;;;;;;;4.17;2.10;;;16.10;29.50;;;;;;8392921;28;20048;-55
2021/04/18 04:54:23;;;;;;;3.33;2.37;;;16.10;29.50;;;;;;8392108;28;20127;-55
2021/04/18 04:58:24;;;;;;;2.87;2.20;;;16.10;29.50;;;;;;8394154;28;20117;-54
2021/04/18 05:02:24;;;;;;;4.67;2.57;;;16.00;29.60;;;;;;8398472;28;20068;-55
2021/04/18 05:06:25;;;;;;;3.17;1.97;;;16.10;29.60;;;;;;8392445;28;20037;-55
2021/04/18 05:10:26;;;;;;;3.47;2.30;;;16.10;29.60;;;;;;8392580;28;20443;-55
2021/04/18 05:14:26;;;;;;;3.27;2.40;;;16.10;29.60;;;;;;8392539;28;20024;-55
2021/04/18 05:18:27;;;;;;;2.77;2.10;;;16.10;29.60;;;;;;8394098;28;20044;-54
2021/04/18 05:22:27;;;;;;;3.87;2.10;;;16.10;29.70;;;;;;8392016;28;20080;-55
2021/04/18 05:26:28;;;;;;;2.20;1.80;;;16.00;29.70;;;;;;8392142;28;20381;-55
2021/04/18 05:30:28;;;;;;;4.03;2.47;;;16.00;29.60;;;;;;8380555;28;20025;-56
2021/04/18 05:34:29;;;;;;;2.73;2.03;;;16.00;29.60;;;;;;8360248;28;20406;-56
2021/04/18 05:38:29;;;;;;;3.63;2.20;;;16.10;29.70;;;;;;8372240;28;20029;-55
2021/04/18 05:42:30;;;;;;;4.67;2.10;;;16.00;29.70;;;;;;8387582;28;20091;-56
2021/04/18 05:46:31;;;;;;;3.73;2.07;;;16.00;29.70;;;;;;8391715;28;20401;-55
2021/04/18 05:50:32;;;;;;;4.83;2.23;;;16.10;29.70;;;;;;8391240;28;20032;-56
2021/04/18 05:54:33;;;;;;;2.57;1.90;;;16.00;29.70;;;;;;8394166;28;20028;-55
2021/04/18 05:58:33;;;;;;;3.40;1.67;;;16.00;29.70;;;;;;8375767;28;20127;-56
2021/04/18 06:02:34;;;;;;;2.73;1.77;;;16.00;29.70;;;;;;8381076;28;20114;-55
2021/04/18 06:06:34;;;;;;;3.03;2.33;;;16.00;29.70;;;;;;8389276;28;20478;-55
2021/04/18 06:10:35;;;;;;;2.70;2.03;;;16.00;29.70;;;;;;8394113;28;20048;-55
2021/04/18 06:14:35;;;;;;;3.07;2.13;;;16.00;29.70;;;;;;8390983;28;20036;-56
2021/04/18 06:18:37;;;;;;;2.77;1.90;;;16.00;29.70;;;;;;8389292;28;20043;-56
2021/04/18 06:22:38;;;;;;;2.83;1.70;;;16.00;29.70;;;;;;8390369;28;20071;-55
2021/04/18 06:26:38;;;;;;;3.63;1.77;;;16.00;29.70;;;;;;8390653;28;20033;-56
2021/04/18 06:30:39;;;;;;;2.70;1.60;;;16.00;29.70;;;;;;8398922;28;20048;-55
2021/04/18 06:34:40;;;;;;;2.50;1.73;;;16.00;29.80;;;;;;8397553;28;20087;-56
2021/04/18 06:38:40;;;;;;;2.73;1.77;;;16.10;29.80;;;;;;8397503;28;20032;-56
2021/04/18 06:42:41;;;;;;;3.00;1.83;;;16.10;29.80;;;;;;8395374;28;20071;-55
2021/04/18 06:46:43;;;;;;;2.78;1.77;;;16.10;29.80;;;;;;8401379;28;20120;-56
2021/04/18 06:50:44;;;;;;;4.43;2.00;;;16.00;29.70;;;;;;8396211;28;20052;-55
2021/04/18 06:54:44;;;;;;;1.98;1.40;;;16.10;29.70;;;;;;8394981;28;20039;-55
2021/04/18 06:58:45;;;;;;;3.17;2.00;;;16.10;29.70;;;;;;8397062;28;20128;-56
2021/04/18 07:02:45;;;;;;;2.33;1.70;;;16.10;29.70;;;;;;8400910;28;20082;-56
2021/04/18 07:06:55;;;;;;;3.63;2.17;;;16.10;29.70;;;;;;8363175;28;20033;-55
2021/04/18 07:11:10;;;;;;;2.63;1.90;;;16.10;29.70;;;;;;8386854;28;20040;-55
2021/04/18 07:15:35;;;;;;;2.78;1.80;;;16.10;29.70;;;;;;8393800;28;20131;-55
2021/04/18 07:19:38;;;;;;;2.13;1.50;;;16.10;29.70;;;;;;8396076;28;20043;-55
2021/04/18 07:23:39;;;;;;;2.20;1.60;;;16.10;29.70;;;;;;8398947;28;20520;-56
2021/04/18 07:27:48;;;;;;;4.17;1.50;;;16.10;29.60;;;;;;8395211;28;20071;-56
2021/04/18 07:31:49;;;;;;;2.70;1.88;;;16.10;29.70;;;;;;8395939;28;20029;-55
2021/04/18 07:35:50;;;;;;;3.10;1.50;;;16.20;29.70;;;;;;8394019;28;20444;-55
2021/04/18 07:39:56;;;;;;;2.63;1.60;;;16.10;30.00;;;;;;8394038;28;20040;-56
2021/04/18 07:43:57;;;;;;;3.83;1.45;;;16.10;29.60;;;;;;8399541;28;20175;-55
2021/04/18 07:47:59;;;;;;;2.77;1.90;;;16.20;29.60;;;;;;8393676;28;20040;-55
2021/04/18 07:52:00;;;;;;;2.40;1.95;;;16.20;29.60;;;;;;8395258;28;20061;-55
2021/04/18 07:56:00;;;;;;;2.90;1.90;;;16.20;29.60;;;;;;8394862;28;20123;-56
2021/04/18 08:00:03;;;;;;;2.17;1.60;;;16.20;29.60;;;;;;8397439;28;20041;-55
2021/04/18 08:04:04;;;;;;;2.47;1.60;;;16.20;29.60;;;;;;8363293;28;20048;-56
2021/04/18 08:08:07;;;;;;;1.75;1.63;;;16.20;29.60;;;;;;8384601;28;20033;-54
2021/04/18 08:12:11;;;;;;;2.00;1.45;;;16.20;29.60;;;;;;8392857;28;20044;-54
2021/04/18 08:16:11;;;;;;;1.80;1.60;;;16.20;29.60;;;;;;8394628;28;20140;-55
2021/04/18 08:20:12;;;;;;;2.03;1.40;;;16.20;29.60;;;;;;8398504;28;20029;-55
2021/04/18 08:24:18;;;;;;;3.27;1.83;;;16.20;29.60;;;;;;8392271;28;20484;-55
2021/04/18 08:28:19;;;;;;;3.20;1.85;;;16.30;29.60;;;;;;8376136;28;20029;-55
2021/04/18 08:32:19;;;;;;;1.97;1.73;;;16.20;29.60;;;;;;8369759;28;20493;-55
2021/04/18 08:36:23;;;;;;;2.10;1.60;;;16.30;29.60;;;;;;8391863;28;20048;-55
2021/04/18 08:40:30;;;;;;;2.88;1.80;;;16.30;29.60;;;;;;8373987;28;20439;-54
2021/04/18 08:44:39;;;;;;;2.67;2.00;;;16.30;29.60;;;;;;8393363;28;20039;-54
2021/04/18 08:48:40;;;;;;;1.90;1.48;;;16.30;29.60;;;;;;8391168;28;20028;-54
2021/04/18 08:52:41;;;;;;;2.80;2.07;;;16.30;29.60;;;;;;8388165;28;20033;-54
2021/04/18 08:56:51;;;;;;;2.65;1.55;;;16.30;29.50;;;;;;8364241;28;20033;-54
2021/04/18 09:00:51;;;;;;;2.60;1.88;;;16.40;29.60;;;;;;8363357;28;20076;-55
2021/04/18 09:04:55;;;;;;;2.80;1.77;;;16.30;29.50;;;;;;8393035;28;20054;-55
2021/04/18 09:08:56;;;;;;;2.15;1.55;;;16.40;29.60;;;;;;8390638;28;20036;-55
2021/04/18 09:12:56;;;;;;;2.50;1.40;;;16.30;29.60;;;;;;8393419;28;20082;-55
2021/04/18 09:17:15;;;;;;;2.07;1.60;;;16.40;29.60;;;;;;8395466;28;20040;-54
2021/04/18 09:21:16;;;;;;;4.22;1.92;;;16.40;29.60;;;;;;8361752;28;20120;-55
2021/04/18 09:25:18;;;;;;;2.63;1.90;;;16.40;29.60;;;;;;8342496;28;20029;-55
2021/04/18 09:29:19;;;;;;;2.33;2.00;;;16.40;29.70;;;;;;8379945;28;20438;-55
2021/04/18 09:33:19;;;;;;;1.97;1.43;;;16.30;29.60;;;;;;8394666;28;20044;-55
2021/04/18 09:37:29;;;;;;;2.60;1.50;;;16.30;29.60;;;;;;8391904;28;20090;-55
2021/04/18 09:41:34;;;;;;;2.35;1.67;;;16.30;29.70;;;;;;8391533;28;20216;-54
2021/04/18 09:45:35;;;;;;;2.40;1.85;;;16.30;29.60;;;;;;8378151;28;20036;-54
2021/04/18 09:49:44;;;;;;;3.28;1.95;;;16.30;29.70;;;;;;8360888;28;20043;-54
2021/04/18 09:54:03;;;;;;;2.08;1.60;;;16.30;29.70;;;;;;8395737;28;20573;-54
2021/04/18 09:58:03;;;;;;;2.30;2.10;;;16.30;29.70;;;;;;8389143;28;20039;-54
2021/04/18 10:02:12;;;;;;;3.80;1.87;;;16.30;29.70;;;;;;8390750;28;20048;-54
2021/04/18 10:06:13;;;;;;;2.42;2.05;;;16.30;29.70;;;;;;8389359;28;20068;-54
2021/04/18 10:10:32;;;;;;;3.23;2.30;;;16.40;29.70;;;;;;8390835;28;20439;-54
2021/04/18 10:14:32;;;;;;;2.67;2.00;;;16.40;29.70;;;;;;8362827;28;20060;-55
2021/04/18 10:18:35;;;;;;;2.57;1.73;;;16.40;29.70;;;;;;8383442;28;20036;-55
2021/04/18 10:22:35;;;;;;;2.20;1.70;;;16.40;29.70;;;;;;8390891;28;20052;-55
2021/04/18 10:26:36;;;;;;;2.63;1.87;;;16.40;29.70;;;;;;8389574;28;20033;-55
2021/04/18 10:30:38;;;;;;;4.37;2.30;;;16.40;29.70;;;;;;8393578;28;20090;-55
2021/04/18 10:34:39;;;;;;;3.65;2.00;;;16.40;29.70;;;;;;8390342;28;20477;-55
2021/04/18 10:38:40;;;;;;;3.17;2.00;;;16.40;29.70;;;;;;8370016;28;20040;-54
2021/04/18 10:42:40;;;;;;;2.50;1.93;;;16.40;29.70;;;;;;8367145;28;20457;-54
2021/04/18 10:46:42;;;;;;;2.47;1.80;;;16.40;29.70;;;;;;8389259;28;20074;-54
2021/04/18 10:50:44;;;;;;;3.47;2.03;;;16.40;29.70;;;;;;8361786;28;20072;-54
2021/04/18 10:54:45;;;;;;;2.35;1.80;;;16.40;29.70;;;;;;8380987;28;20025;-55
2021/04/18 10:58:45;;;;;;;3.00;2.07;;;16.40;29.70;;;;;;8390306;28;20025;-55
2021/04/18 11:02:46;;;;;;;4.47;2.00;;;16.40;29.70;;;;;;8385459;28;20134;-55
2021/04/18 11:06:47;;;;;;;2.57;1.70;;;16.40;29.70;;;;;;8360018;28;20033;-55
2021/04/18 11:10:47;;;;;;;2.77;1.83;;;16.40;29.70;;;;;;8386020;28;20492;-55
2021/04/18 11:14:48;;;;;;;2.43;2.00;;;16.40;29.70;;;;;;8390234;28;20059;-49
2021/04/18 11:18:49;;;;;;;2.75;1.80;;;16.40;29.70;;;;;;8371457;28;20166;-55
2021/04/18 11:22:50;;;;;;;2.70;2.03;;;16.40;29.70;;;;;;8400076;28;20098;-55
2021/04/18 11:26:50;;;;;;;2.30;1.90;;;16.40;29.80;;;;;;8394009;28;20123;-55
2021/04/18 11:30:51;;;;;;;2.13;1.53;;;16.40;29.80;;;;;;8373808;28;20029;-55
2021/04/18 11:34:51;;;;;;;3.07;2.00;;;16.40;29.80;;;;;;8375235;28;20044;-55
2021/04/18 11:38:52;;;;;;;2.80;1.90;;;16.40;29.90;;;;;;8393702;28;20070;-55
2021/04/18 11:42:53;;;;;;;2.23;1.73;;;16.40;29.90;;;;;;8399715;28;20045;-55
2021/04/18 11:46:53;;;;;;;3.37;2.33;;;16.40;29.90;;;;;;8395280;28;20129;-54
2021/04/18 11:50:54;;;;;;;3.07;2.00;;;16.40;29.90;;;;;;8393646;28;20029;-55
2021/04/18 11:54:54;;;;;;;3.03;2.23;;;16.40;30.00;;;;;;8389481;28;20070;-56
2021/04/18 11:58:55;;;;;;;3.80;2.20;;;16.30;30.00;;;;;;8366084;28;20025;-55
2021/04/18 12:02:55;;;;;;;4.27;2.10;;;16.30;30.00;;;;;;8390036;28;20041;-54
2021/04/18 12:06:56;;;;;;;2.43;1.80;;;16.30;30.00;;;;;;8394687;28;20120;-55
2021/04/18 12:10:56;;;;;;;2.53;1.70;;;16.40;30.00;;;;;;8394429;28;20033;-55
2021/04/18 12:14:57;;;;;;;2.40;2.00;;;16.40;30.00;;;;;;8393794;28;20459;-55
2021/04/18 12:18:57;;;;;;;2.20;1.90;;;16.40;30.10;;;;;;8397774;28;20550;-56
2021/04/18 12:22:58;;;;;;;3.33;2.00;;;16.40;30.70;;;;;;8394026;28;20057;-54
2021/04/18 12:26:59;;;;;;;2.63;2.17;;;16.40;30.20;;;;;;8392162;28;20378;-56
2021/04/18 12:30:59;;;;;;;2.07;1.77;;;16.30;30.20;;;;;;8393713;28;20033;-55
2021/04/18 12:35:00;;;;;;;1.83;1.50;;;16.40;30.20;;;;;;8398285;28;20524;-56
2021/04/18 12:39:00;;;;;;;1.87;1.53;;;16.40;30.20;;;;;;8391384;28;20041;-54
2021/04/18 12:43:01;;;;;;;1.70;1.40;;;16.40;30.20;;;;;;8393305;28;20040;-57
2021/04/18 12:47:01;;;;;;;2.03;1.83;;;16.40;30.20;;;;;;8386723;28;20040;-56
2021/04/18 12:51:02;;;;;;;2.07;1.60;;;16.40;30.20;;;;;;8362568;27;20036;-56
2021/04/18 12:55:04;;;;;;;1.93;1.53;;;16.40;30.40;;;;;;8391065;28;20040;-54
2021/04/18 12:59:05;;;;;;;3.03;1.40;;;16.40;30.30;;;;;;8392202;28;20111;-55
2021/04/18 13:03:06;;;;;;;2.10;1.70;;;16.40;30.30;;;;;;8390655;28;20059;-55
2021/04/18 13:07:06;;;;;;;2.00;1.42;;;16.40;30.40;;;;;;8392597;28;20082;-55
2021/04/18 13:11:07;;;;;;;2.47;1.83;;;16.50;30.60;;;;;;8396964;28;20021;-55
2021/04/18 13:15:08;;;;;;;3.53;1.53;;;16.40;30.50;;;;;;8390636;28;20052;-55
2021/04/18 13:19:09;;;;;;;2.10;1.70;;;16.40;30.50;;;;;;8391611;28;20106;-55
2021/04/18 13:23:09;;;;;;;1.70;1.40;;;16.50;30.60;;;;;;8392084;28;20032;-54
2021/04/18 13:27:10;;;;;;;1.53;1.33;;;16.50;30.50;;;;;;8394785;28;20080;-54
2021/04/18 13:31:11;;;;;;;1.95;1.45;;;16.40;30.50;;;;;;8392109;28;20048;-54
2021/04/18 13:35:12;;;;;;;1.80;1.63;;;16.50;30.70;;;;;;8391721;28;20033;-54
2021/04/18 13:39:13;;;;;;;1.90;1.70;;;16.40;30.40;;;;;;8389589;28;20098;-54
2021/04/18 13:43:15;;;;;;;2.33;1.50;;;16.50;30.80;;;;;;8396071;28;20040;-54
2021/04/18 13:47:16;;;;;;;2.30;1.40;;;16.40;30.60;;;;;;8391614;28;20041;-54
2021/04/18 13:51:17;;;;;;;2.33;1.77;;;16.40;30.60;;;;;;8390052;28;20036;-54
2021/04/18 13:55:17;;;;;;;1.53;1.30;;;16.40;30.60;;;;;;8391427;28;20033;-56
2021/04/18 13:59:18;;;;;;;2.57;1.53;;;16.50;30.80;;;;;;8370325;28;20174;-55
2021/04/18 14:03:18;;;;;;;3.20;1.73;;;16.50;30.80;;;;;;8389861;28;20067;-54
2021/04/18 14:07:19;;;;;;;1.87;1.30;;;16.50;30.90;;;;;;8365695;28;20065;-55
2021/04/18 14:11:20;;;;;;;3.10;1.70;;;16.50;30.80;;;;;;8375012;28;20067;-54
2021/04/18 14:15:20;;;;;;;1.90;1.20;;;16.50;30.90;;;;;;8389222;28;20040;-55
2021/04/18 14:19:21;;;;;;;2.50;2.27;;;16.50;30.90;;;;;;8395256;28;20115;-54
2021/04/18 14:23:22;;;;;;;1.60;1.50;;;16.50;31.00;;;;;;8390451;28;20489;-55
2021/04/18 14:27:22;;;;;;;1.57;1.47;;;16.50;31.00;;;;;;8389168;28;20045;-55
2021/04/18 14:31:23;;;;;;;3.40;1.73;;;16.50;31.00;;;;;;8380539;28;20063;-55
2021/04/18 14:35:23;;;;;;;3.17;1.50;;;16.60;31.10;;;;;;8359483;28;20051;-55
2021/04/18 14:39:28;;;;;;;2.47;2.23;;;16.60;31.00;;;;;;8392516;27;20036;-57
2021/04/18 14:43:32;;;;;;;1.52;1.38;;;16.50;31.00;;;;;;8390362;28;20048;-55
2021/04/18 14:47:33;;;;;;;3.45;1.92;;;16.50;31.00;;;;;;8390446;28;20078;-57
2021/04/18 14:51:34;;;;;;;2.00;1.33;;;16.50;31.10;;;;;;8393295;28;20025;-55
2021/04/18 14:55:34;;;;;;;1.37;1.27;;;16.60;31.00;;;;;;8399787;28;20043;-55
2021/04/18 14:59:35;;;;;;;4.07;1.63;;;16.60;31.00;;;;;;8368955;28;20033;-55
2021/04/18 15:03:35;;;;;;;2.40;1.83;;;16.50;31.00;;;;;;8380500;28;20051;-55
2021/04/18 15:07:36;;;;;;;3.67;2.50;;;16.50;31.00;;;;;;8396368;28;20079;-55
2021/04/18 15:11:37;;;;;;;4.63;2.90;;;16.50;31.00;;;;;;8400539;28;20029;-53
2021/04/18 15:15:37;;;;;;;4.60;3.00;;;16.50;31.60;;;;;;8394171;28;20024;-55
2021/04/18 15:19:38;;;;;;;5.57;3.40;;;16.50;31.10;;;;;;8396049;28;20032;-54
2021/04/18 15:23:39;;;;;;;4.37;2.97;;;16.50;31.10;;;;;;8383800;28;20061;-56
2021/04/18 15:27:42;;;;;;;5.35;3.03;;;16.60;31.20;;;;;;8331936;28;20065;-54
2021/04/18 15:31:42;;;;;;;4.93;2.97;;;16.60;31.60;;;;;;8382620;28;20044;-55
2021/04/18 15:35:43;;;;;;;3.90;2.67;;;16.50;31.00;;;;;;8395402;28;20457;-56
2021/04/18 15:39:56;;;;;;;3.77;2.83;;;16.60;31.00;;;;;;8393652;28;20037;-55
2021/04/18 15:43:56;;;;;;;5.10;2.97;;;16.60;31.00;;;;;;8395198;28;20451;-56
2021/04/18 15:47:57;;;;;;;4.43;2.27;;;16.60;31.00;;;;;;8397817;28;20029;-56
2021/04/18 15:51:59;;;;;;;4.90;2.90;;;16.60;31.00;;;;;;8364104;28;20044;-55
2021/04/18 15:56:00;;;;;;;4.47;2.78;;;16.60;31.10;;;;;;8365495;28;20378;-55
2021/04/18 16:00:08;;;;;;;3.50;2.77;;;16.60;31.10;;;;;;8385874;28;20037;-55
2021/04/18 16:04:09;;;;;;;4.95;3.40;;;16.60;31.10;;;;;;8391189;28;20037;-55
2021/04/18 16:08:09;;;;;;;4.30;2.90;;;16.60;31.10;;;;;;8365826;28;20086;-55
2021/04/18 16:12:13;;;;;;;4.63;3.13;;;16.60;31.10;;;;;;8386100;28;20481;-55
2021/04/18 16:16:15;;;;;;;3.25;2.80;;;16.60;31.10;;;;;;8377178;28;20048;-55
2021/04/18 16:20:16;;;;;;;4.60;3.03;;;16.60;31.10;;;;;;8368572;28;20397;-55
2021/04/18 16:24:17;;;;;;;3.50;2.83;;;16.60;31.10;;;;;;8396506;28;20048;-55
2021/04/18 16:28:17;;;;;;;4.30;2.80;;;16.60;31.10;;;;;;8393503;28;20076;-55
2021/04/18 16:32:19;;;;;;;4.70;3.07;;;16.60;31.10;;;;;;8392497;28;20306;-56
2021/04/18 16:36:19;;;;;;;4.30;2.65;;;16.60;31.10;;;;;;8391646;28;20396;-56
2021/04/18 16:40:21;;;;;;;4.37;2.90;;;16.60;31.00;;;;;;8391762;28;20068;-54
2021/04/18 16:44:23;;;;;;;3.63;2.53;;;16.60;31.10;;;;;;8364426;28;20060;-54
2021/04/18 16:48:23;;;;;;;3.45;2.45;;;16.60;31.00;;;;;;8383279;28;20059;-55
2021/04/18 16:52:24;;;;;;;3.53;2.53;;;16.60;31.10;;;;;;8392954;28;20056;-54
2021/04/18 16:56:25;;;;;;;3.37;2.50;;;16.60;31.10;;;;;;8391873;28;20024;-56
2021/04/18 17:00:25;;;;;;;4.10;2.87;;;16.60;31.10;;;;;;8395343;28;20052;-54
2021/04/18 17:04:26;;;;;;;3.40;2.60;;;16.60;31.70;;;;;;8392418;28;20457;-54
2021/04/18 17:08:27;;;;;;;3.33;2.57;;;16.60;31.10;;;;;;8391937;28;20025;-54
2021/04/18 17:12:27;;;;;;;3.60;2.40;;;16.60;31.10;;;;;;8381638;28;20033;-53
2021/04/18 17:16:28;;;;;;;5.53;2.50;;;16.60;31.10;;;;;;8363448;28;20544;-56
2021/04/18 17:20:29;;;;;;;2.90;2.60;;;16.60;31.00;;;;;;8391307;28;20028;-54
2021/04/18 17:24:30;;;;;;;3.07;2.37;;;16.60;31.00;;;;;;8389785;28;20085;-55
2021/04/18 17:28:30;;;;;;;4.85;2.72;;;16.60;31.00;;;;;;8391591;28;20044;-54
2021/04/18 17:32:31;;;;;;;4.30;2.83;;;16.60;31.00;;;;;;8391660;28;20044;-54
2021/04/18 17:36:32;;;;;;;3.13;2.33;;;16.60;31.00;;;;;;8394510;28;20051;-54
2021/04/18 17:40:32;;;;;;;2.90;2.10;;;16.50;30.90;;;;;;8391486;28;20496;-54
2021/04/18 17:44:33;;;;;;;2.77;2.40;;;16.60;31.00;;;;;;8391303;28;20048;-54
2021/04/18 17:48:33;;;;;;;3.10;2.30;;;16.50;30.90;;;;;;8388743;28;20056;-54
2021/04/18 17:52:35;;;;;;;4.20;2.90;;;16.50;30.90;;;;;;8395747;28;20039;-54
2021/04/18 17:56:35;;;;;;;3.83;2.53;;;16.50;31.00;;;;;;8391250;28;20499;-54
2021/04/18 18:00:36;;;;;;;4.10;2.60;;;16.50;31.50;;;;;;8369835;28;20087;-54
2021/04/18 18:04:37;;;;;;;4.93;2.60;;;16.50;31.00;;;;;;8353076;28;20047;-55
2021/04/18 18:08:37;;;;;;;2.97;2.57;;;16.50;31.00;;;;;;8382106;28;20397;-56
2021/04/18 18:12:38;;;;;;;3.97;2.90;;;16.50;30.90;;;;;;8392677;28;20336;-54
2021/04/18 18:16:39;;;;;;;3.87;2.63;;;16.50;30.90;;;;;;8390629;28;20040;-55
2021/04/18 18:20:39;;;;;;;3.80;2.30;;;16.50;30.90;;;;;;8391042;28;20139;-54
2021/04/18 18:24:40;;;;;;;4.63;3.03;;;16.50;30.80;;;;;;8390219;28;20045;-55
2021/04/18 18:28:40;;;;;;;3.70;2.67;;;16.50;30.80;;;;;;8373271;28;20048;-55
2021/04/18 18:32:41;;;;;;;5.90;2.97;;;16.50;30.80;;;;;;8395437;28;20511;-55
2021/04/18 18:36:41;;;;;;;3.40;2.50;;;16.50;30.80;;;;;;8399778;28;20432;-54
2021/04/18 18:40:42;;;;;;;5.07;3.13;;;16.50;30.80;;;;;;8402306;28;20036;-54
2021/04/18 18:44:43;;;;;;;4.60;3.03;;;16.50;30.80;;;;;;8406925;28;20044;-54
2021/04/18 18:48:43;;;;;;;4.37;2.70;;;16.50;30.80;;;;;;8400603;28;20035;-54
2021/04/18 18:56:47;;;;;;;3.70;2.47;;;16.50;30.90;;;;;;8379194;28;20033;-50
2021/04/18 19:00:48;;;;;;;4.83;2.97;;;16.50;30.80;;;;;;8401272;28;20045;-55
2021/04/18 19:04:49;;;;;;;3.53;2.87;;;16.50;30.80;;;;;;8405762;28;20504;-56
2021/04/18 19:08:49;;;;;;;3.80;3.07;;;16.50;30.90;;;;;;8399523;28;20029;-55
2021/04/18 19:12:50;;;;;;;5.47;3.33;;;16.50;30.80;;;;;;8401041;28;20051;-55
2021/04/18 19:16:52;;;;;;;3.97;2.92;;;16.50;30.80;;;;;;8395828;28;20086;-56
2021/04/18 19:20:52;;;;;;;4.88;3.08;;;16.50;30.80;;;;;;8369933;28;20539;-54
2021/04/18 19:24:53;;;;;;;4.90;2.87;;;16.50;30.80;;;;;;8372798;28;20112;-55
2021/04/18 19:28:53;;;;;;;3.33;2.30;;;16.50;30.90;;;;;;8401018;28;20043;-55
2021/04/18 19:32:56;;;;;;;3.33;2.77;;;16.50;30.80;;;;;;8399175;28;20021;-54
2021/04/18 19:36:56;;;;;;;4.00;2.75;;;16.50;30.80;;;;;;8401315;28;20028;-54
2021/04/18 19:40:57;;;;;;;4.13;2.80;;;16.50;30.80;;;;;;8395127;28;20037;-55
2021/04/18 19:44:57;;;;;;;8.73;3.00;;;16.50;30.80;;;;;;8371383;28;20041;-54
2021/04/18 19:48:58;;;;;;;3.43;2.60;;;16.50;30.80;;;;;;8375017;28;20116;-56
2021/04/18 19:53:05;;;;;;;4.63;3.20;;;16.50;30.80;;;;;;8395229;28;20111;-56
2021/04/18 19:57:06;;;;;;;4.63;2.80;;;16.50;30.80;;;;;;8397807;28;20040;-55
2021/04/18 20:01:07;;;;;;;3.35;2.90;;;16.50;30.80;;;;;;8394801;28;20044;-57
2021/04/18 20:05:08;;;;;;;3.83;2.57;;;16.50;30.90;;;;;;8394655;28;20029;-56
2021/04/18 20:09:09;;;;;;;5.05;3.03;;;16.40;30.80;;;;;;8392541;28;20041;-55
2021/04/18 20:13:10;;;;;;;3.53;2.50;;;16.50;30.90;;;;;;8398863;28;20036;-55
2021/04/18 20:17:10;;;;;;;4.03;2.73;;;16.40;30.90;;;;;;8394260;28;20044;-55
2021/04/18 20:21:11;;;;;;;4.40;3.00;;;16.40;31.50;;;;;;8392698;28;20286;-55
2021/04/18 20:25:13;;;;;;;4.60;2.60;;;16.40;31.00;;;;;;8393894;28;20043;-55
2021/04/18 20:29:14;;;;;;;4.00;2.90;;;16.50;31.00;;;;;;8394093;28;20493;-56
2021/04/18 20:33:16;;;;;;;3.97;2.70;;;16.50;31.00;;;;;;8396785;28;20047;-55
2021/04/18 20:37:17;;;;;;;;;;;16.50;31.00;;;;;;8393972;28;20039;-56
2021/04/18 20:41:17;;;;;;;4.20;3.22;;;16.50;31.00;;;;;;8393469;28;20262;-56
2021/04/18 20:45:18;;;;;;;6.03;3.30;;;16.50;31.00;;;;;;8390627;28;20037;-56
2021/04/18 20:49:18;;;;;;;4.87;3.07;;;16.50;31.00;;;;;;8396741;28;20057;-56
2021/04/18 20:53:19;;;;;;;4.17;2.70;;;16.50;31.00;;;;;;8393250;28;20048;-56
2021/04/18 20:57:20;;;;;;;4.33;2.97;;;16.50;31.10;;;;;;8391468;28;20063;-56
2021/04/18 21:01:20;;;;;;;5.07;3.00;;;16.40;31.00;;;;;;8383846;28;20045;-55